createdAt,value
2022-11-06T00:01:12.978Z,100105.03
2022-11-06T00:03:40.655Z,100105.28
2022-11-06T00:06:09.763Z,100112.66
2022-11-06T00:08:39.022Z,100109.22
2022-11-06T00:11:14.229Z,100115.16
2022-11-06T00:13:42.787Z,100108.16
2022-11-06T00:16:12.763Z,100110.88
2022-11-06T00:18:41.164Z,100107.34
2022-11-06T00:21:10.362Z,100116.56
2022-11-06T00:23:37.345Z,100104.75
2022-11-06T00:26:09.211Z,100104.75
2022-11-06T00:28:36.413Z,100103.19
2022-11-06T00:31:05.460Z,100091.38
2022-11-06T00:33:32.848Z,100093.81
2022-11-06T00:36:02.643Z,100094.66
2022-11-06T00:38:29.892Z,100084.47
2022-11-06T00:40:56.885Z,100079.38
2022-11-06T00:43:23.848Z,100071.72
2022-11-06T00:45:50.801Z,100062.22
2022-11-06T00:48:17.804Z,100061.97
2022-11-06T00:50:44.810Z,100060.97
2022-11-06T00:53:11.760Z,100062.53
2022-11-06T00:55:38.762Z,100064.81
2022-11-06T00:58:05.734Z,100061.28
2022-11-06T01:00:32.695Z,100068.25
2022-11-06T01:02:59.844Z,100075.81
2022-11-06T01:05:26.966Z,100076.69
2022-11-06T01:07:53.961Z,100076.28
2022-11-06T01:10:20.963Z,100074.41
2022-11-06T01:12:47.948Z,100067.47
2022-11-06T01:15:14.938Z,100077.03
2022-11-06T01:17:41.911Z,100069.47
2022-11-06T01:20:09.545Z,100074.38
2022-11-06T01:22:36.516Z,100074.94
2022-11-06T01:25:03.862Z,100070.09
2022-11-06T01:27:30.856Z,100073.41
2022-11-06T01:29:57.833Z,100079.66
2022-11-06T01:32:24.857Z,100079.78
2022-11-06T01:34:51.869Z,100071.34
2022-11-06T01:37:18.884Z,100074.38
2022-11-06T01:39:45.857Z,100063.69
2022-11-06T01:42:13.676Z,100062.50
2022-11-06T01:44:40.570Z,100059.38
2022-11-06T01:47:33.862Z,100050.34
2022-11-06T01:50:09.854Z,100050.47
2022-11-06T01:52:37.092Z,100046.00
2022-11-06T01:55:14.054Z,100025.31
2022-11-06T01:57:41.742Z,100031.06
2022-11-06T02:00:09.430Z,100038.16
2022-11-06T02:02:38.535Z,100043.81
2022-11-06T02:05:06.424Z,100036.69
2022-11-06T02:07:34.178Z,100040.53
2022-11-06T02:10:01.200Z,100038.66
2022-11-06T02:12:53.188Z,100039.78
2022-11-06T02:15:35.064Z,100032.09
2022-11-06T02:18:14.331Z,100027.81
2022-11-06T02:20:53.508Z,100020.97
2022-11-06T02:23:42.223Z,100033.03
2022-11-06T02:26:19.764Z,100022.75
2022-11-06T02:29:03.760Z,100026.94
2022-11-06T02:31:35.405Z,100017.69
2022-11-06T02:34:11.871Z,100024.69
2022-11-06T02:36:46.309Z,100033.19
2022-11-06T02:39:18.773Z,100029.75
2022-11-06T02:41:47.174Z,100025.09
2022-11-06T02:44:20.383Z,100023.25
2022-11-06T02:46:51.951Z,100015.22
2022-11-06T02:49:32.787Z,100015.56
2022-11-06T02:52:06.443Z,100008.66
2022-11-06T02:54:38.149Z,100007.28
2022-11-06T02:57:08.605Z,100015.41
2022-11-06T02:59:43.247Z,100018.31
2022-11-06T03:02:17.952Z,100024.91
2022-11-06T03:04:53.341Z,100016.53
2022-11-06T03:07:32.529Z,100011.59
2022-11-06T03:09:59.664Z,100007.88
2022-11-06T03:12:26.582Z,99996.38
2022-11-06T03:15:12.784Z,99996.63
2022-11-06T03:18:04.123Z,100000.72
2022-11-06T03:20:39.481Z,100003.84
2022-11-06T03:23:13.900Z,99997.81
2022-11-06T03:25:58.290Z,100003.78
2022-11-06T03:28:37.673Z,100000.63
2022-11-06T03:31:11.238Z,100005.41
2022-11-06T03:33:52.143Z,100005.97
2022-11-06T03:36:24.794Z,100009.16
2022-11-06T03:39:08.029Z,100008.13
2022-11-06T03:41:42.013Z,100003.72
2022-11-06T03:44:13.363Z,100009.25
2022-11-06T03:46:53.546Z,100017.97
2022-11-06T03:49:36.858Z,100020.97
2022-11-06T03:52:12.946Z,100022.19
2022-11-06T03:54:45.893Z,100011.78
2022-11-06T03:57:23.525Z,100013.03
2022-11-06T03:59:57.766Z,100008.16
2022-11-06T04:02:28.270Z,100010.22
2022-11-06T04:05:00.094Z,99999.09
2022-11-06T04:07:33.488Z,99992.38
2022-11-06T04:10:03.708Z,99995.47
2022-11-06T04:12:32.668Z,99990.19
2022-11-06T04:15:00.992Z,99990.91
2022-11-06T04:17:29.806Z,99990.53
2022-11-06T04:20:00.743Z,99989.56
2022-11-06T04:22:36.859Z,99988.72
2022-11-06T04:25:10.843Z,99987.13
2022-11-06T04:27:45.337Z,99989.22
2022-11-06T04:30:17.366Z,99986.91
2022-11-06T04:33:00.369Z,99983.00
2022-11-06T04:35:46.361Z,99986.06
2022-11-06T04:38:41.228Z,99988.19
2022-11-06T04:41:08.110Z,99988.53
2022-11-06T04:43:47.225Z,99982.81
2022-11-06T04:46:27.365Z,99976.81
2022-11-06T04:48:55.022Z,99974.38
2022-11-06T04:51:26.257Z,99965.22
2022-11-06T04:53:54.054Z,99967.03
2022-11-06T04:56:29.168Z,99976.22
2022-11-06T04:58:56.843Z,99969.00
2022-11-06T05:01:23.956Z,99964.59
2022-11-06T05:03:51.416Z,99965.44
2022-11-06T05:06:18.551Z,99962.63
2022-11-06T05:08:45.610Z,99968.63
2022-11-06T05:11:12.654Z,99964.94
2022-11-06T05:13:39.626Z,99972.44
2022-11-06T05:16:06.932Z,99982.09
2022-11-06T05:18:34.012Z,99984.06
2022-11-06T05:21:02.042Z,99975.00
2022-11-06T05:23:28.991Z,99984.69
2022-11-06T05:25:55.935Z,99985.66
2022-11-06T05:28:22.891Z,99979.56
2022-11-06T05:30:49.816Z,99981.63
2022-11-06T05:33:16.840Z,99982.84
2022-11-06T05:35:43.835Z,99985.53
2022-11-06T05:38:11.125Z,99986.41
2022-11-06T05:40:38.522Z,99975.28
2022-11-06T05:43:05.491Z,99981.78
2022-11-06T05:45:32.662Z,99970.00
2022-11-06T05:47:59.771Z,99972.22
2022-11-06T05:50:26.918Z,99974.28
2022-11-06T05:52:53.872Z,99976.38
2022-11-06T05:55:20.990Z,99977.38
2022-11-06T05:57:47.945Z,99978.72
2022-11-06T06:00:15.129Z,99974.03
2022-11-06T06:02:43.365Z,99967.69
2022-11-06T06:05:10.616Z,99964.13
2022-11-06T06:07:37.546Z,99957.53
2022-11-06T06:10:04.956Z,99950.44
2022-11-06T06:12:31.921Z,99952.13
2022-11-06T06:14:58.890Z,99954.22
2022-11-06T06:17:26.393Z,99957.53
2022-11-06T06:19:53.489Z,99954.84
2022-11-06T06:22:20.436Z,99948.97
2022-11-06T06:24:47.486Z,99949.09
2022-11-06T06:27:14.482Z,99948.38
2022-11-06T06:29:41.420Z,99943.94
2022-11-06T06:32:08.575Z,99943.94
2022-11-06T06:34:35.555Z,99952.88
2022-11-06T06:37:02.588Z,99949.44
2022-11-06T06:39:29.598Z,99947.00
2022-11-06T06:41:56.554Z,99952.41
2022-11-06T06:44:23.525Z,99941.13
2022-11-06T06:46:50.491Z,99934.38
2022-11-06T06:49:17.450Z,99939.53
2022-11-06T06:51:44.496Z,99927.06
2022-11-06T06:54:11.428Z,99923.03
2022-11-06T06:56:38.382Z,99927.19
2022-11-06T06:59:05.385Z,99929.00
2022-11-06T07:01:32.599Z,99941.13
2022-11-06T07:04:04.007Z,99929.00
2022-11-06T07:06:31.610Z,99927.53
2022-11-06T07:08:58.614Z,99919.47
2022-11-06T07:11:25.604Z,99906.47
2022-11-06T07:13:52.619Z,99910.16
2022-11-06T07:16:19.585Z,99909.88
2022-11-06T07:18:46.528Z,99902.16
2022-11-06T07:21:13.568Z,99910.34
2022-11-06T07:23:40.902Z,99894.19
2022-11-06T07:26:07.926Z,99895.03
2022-11-06T07:28:35.170Z,99887.56
2022-11-06T07:31:04.762Z,99892.81
2022-11-06T07:33:32.325Z,99900.00
2022-11-06T07:36:11.400Z,99902.56
2022-11-06T07:38:40.083Z,99902.81
2022-11-06T07:41:10.282Z,99894.41
2022-11-06T07:43:37.533Z,99881.66
2022-11-06T07:46:06.979Z,99883.28
2022-11-06T07:48:34.113Z,99881.13
2022-11-06T07:51:06.647Z,99883.59
2022-11-06T07:53:33.931Z,99883.69
2022-11-06T07:56:01.162Z,99877.72
2022-11-06T07:58:28.242Z,99894.63
2022-11-06T08:00:57.292Z,99891.28
2022-11-06T08:03:25.280Z,99882.66
2022-11-06T08:05:52.252Z,99890.63
2022-11-06T08:08:19.232Z,99896.63
2022-11-06T08:10:46.207Z,99886.59
2022-11-06T08:13:16.760Z,99884.81
2022-11-06T08:15:44.152Z,99890.00
2022-11-06T08:18:12.590Z,99889.00
2022-11-06T08:20:40.475Z,99888.41
2022-11-06T08:23:10.823Z,99873.94
2022-11-06T08:25:38.165Z,99873.09
2022-11-06T08:28:05.485Z,99868.31
2022-11-06T08:30:32.552Z,99859.69
2022-11-06T08:33:05.064Z,99865.13
2022-11-06T08:35:34.218Z,99851.94
2022-11-06T08:38:01.215Z,99855.09
2022-11-06T08:40:31.204Z,99861.06
2022-11-06T08:43:00.486Z,99852.28
2022-11-06T08:45:28.043Z,99858.38
2022-11-06T08:47:55.198Z,99858.66
2022-11-06T08:50:22.192Z,99849.28
2022-11-06T08:52:49.198Z,99854.19
2022-11-06T08:55:16.185Z,99857.59
2022-11-06T08:57:43.263Z,99849.19
2022-11-06T09:00:10.969Z,99855.59
2022-11-06T09:02:38.057Z,99847.47
2022-11-06T09:05:05.408Z,99857.84
2022-11-06T09:07:32.413Z,99860.50
2022-11-06T09:09:59.390Z,99849.88
2022-11-06T09:12:26.421Z,99853.88
2022-11-06T09:14:53.352Z,99849.78
2022-11-06T09:17:20.342Z,99849.28
2022-11-06T09:19:47.295Z,99854.47
2022-11-06T09:22:14.261Z,99844.69
2022-11-06T09:25:02.729Z,99844.41
2022-11-06T09:27:28.993Z,99842.66
2022-11-06T09:29:55.958Z,99836.44
2022-11-06T09:32:22.914Z,99826.34
2022-11-06T09:34:50.310Z,99821.16
2022-11-06T09:37:17.232Z,99808.25
2022-11-06T09:39:44.458Z,99814.72
2022-11-06T09:42:48.321Z,99814.25
2022-11-06T09:45:19.527Z,99814.03
2022-11-06T09:47:52.936Z,99801.72
2022-11-06T09:50:25.735Z,99804.88
2022-11-06T09:53:04.614Z,99806.31
2022-11-06T09:55:43.462Z,99793.63
2022-11-06T09:58:31.789Z,99799.13
2022-11-06T10:01:07.036Z,99797.13
2022-11-06T10:03:46.946Z,99798.72
2022-11-06T10:06:14.552Z,99781.59
2022-11-06T10:08:43.195Z,99775.00
2022-11-06T10:11:15.971Z,99772.16
2022-11-06T10:14:08.837Z,99772.84
2022-11-06T10:17:06.650Z,99763.00
2022-11-06T10:19:56.950Z,99750.41
2022-11-06T10:22:40.534Z,99758.09
2022-11-06T10:25:20.975Z,99739.22
2022-11-06T10:28:26.150Z,99729.22
2022-11-06T10:31:02.180Z,99728.00
2022-11-06T10:33:57.548Z,99722.19
2022-11-06T10:36:46.112Z,99713.84
2022-11-06T10:39:28.863Z,99708.88
2022-11-06T10:42:01.882Z,99710.75
2022-11-06T10:44:32.860Z,99698.84
2022-11-06T10:47:21.555Z,99688.25
2022-11-06T10:49:57.956Z,99686.38
2022-11-06T10:52:46.238Z,99688.56
2022-11-06T10:55:37.290Z,99674.91
2022-11-06T10:58:04.243Z,99674.22
2022-11-06T11:00:32.986Z,99676.91
2022-11-06T11:03:02.731Z,99670.22
2022-11-06T11:05:44.073Z,99673.75
2022-11-06T11:08:36.038Z,99670.97
2022-11-06T11:11:06.202Z,99663.78
2022-11-06T11:13:33.670Z,99656.66
2022-11-06T11:16:02.442Z,99657.41
2022-11-06T11:18:29.468Z,99657.38
2022-11-06T11:21:25.049Z,99645.25
2022-11-06T11:23:58.017Z,99636.59
2022-11-06T11:26:28.322Z,99630.22
2022-11-06T11:28:58.043Z,99633.44
2022-11-06T11:31:33.276Z,99632.69
2022-11-06T11:34:04.158Z,99629.63
2022-11-06T11:36:48.821Z,99628.03
2022-11-06T11:39:17.943Z,99625.50
2022-11-06T11:41:45.088Z,99617.78
2022-11-06T11:44:12.022Z,99611.34
2022-11-06T11:46:50.679Z,99601.06
2022-11-06T11:49:32.539Z,99595.03
2022-11-06T11:52:04.935Z,99598.97
2022-11-06T11:54:34.968Z,99588.16
2022-11-06T11:57:08.139Z,99588.00
2022-11-06T11:59:48.013Z,99580.78
2022-11-06T12:02:28.288Z,99571.91
2022-11-06T12:05:17.962Z,99560.38
2022-11-06T12:07:49.685Z,99555.75
2022-11-06T12:10:34.965Z,99548.81
2022-11-06T12:13:13.978Z,99547.84
2022-11-06T12:15:56.424Z,99536.75
2022-11-06T12:18:28.375Z,99536.00
2022-11-06T12:21:04.391Z,99521.97
2022-11-06T12:23:38.009Z,99527.25
2022-11-06T12:26:19.071Z,99536.94
2022-11-06T12:28:50.072Z,99516.16
2022-11-06T12:31:38.736Z,99509.91
2022-11-06T12:34:16.945Z,99506.91
2022-11-06T12:37:04.082Z,99507.16
2022-11-06T12:39:34.485Z,99502.38
2022-11-06T12:42:04.109Z,99484.56
2022-11-06T12:44:31.115Z,99481.06
2022-11-06T12:47:26.195Z,99466.63
2022-11-06T12:50:04.491Z,99472.50
2022-11-06T12:52:43.776Z,99471.44
2022-11-06T12:55:26.375Z,99459.41
2022-11-06T12:57:58.963Z,99451.69
2022-11-06T13:00:55.737Z,99446.94
2022-11-06T13:03:41.386Z,99427.00
2022-11-06T13:06:31.267Z,99433.88
2022-11-06T13:09:18.295Z,99429.19
2022-11-06T13:11:51.106Z,99432.63
2022-11-06T13:14:30.627Z,99439.91
2022-11-06T13:17:03.697Z,99443.56
2022-11-06T13:19:45.570Z,99440.81
2022-11-06T13:22:49.356Z,99428.59
2022-11-06T13:25:19.054Z,99449.97
2022-11-06T13:28:04.950Z,99431.72
2022-11-06T13:30:33.558Z,99426.09
2022-11-06T13:33:22.949Z,99411.59
2022-11-06T13:35:51.055Z,99411.69
2022-11-06T13:38:25.494Z,99411.88
2022-11-06T13:41:02.226Z,99418.63
2022-11-06T13:43:37.216Z,99416.75
2022-11-06T13:46:39.979Z,99411.31
2022-11-06T13:49:22.301Z,99415.44
2022-11-06T13:52:01.883Z,99411.88
2022-11-06T13:54:45.514Z,99396.91
2022-11-06T13:57:34.097Z,99407.19
2022-11-06T14:00:19.631Z,99397.28
2022-11-06T14:02:55.818Z,99382.81
2022-11-06T14:05:44.728Z,99388.00
2022-11-06T14:08:18.014Z,99378.50
2022-11-06T14:10:58.752Z,99389.09
2022-11-06T14:13:28.908Z,99383.56
2022-11-06T14:16:18.041Z,99385.19
2022-11-06T14:19:13.425Z,99395.88
2022-11-06T14:21:46.410Z,99391.28
2022-11-06T14:24:19.301Z,99392.31
2022-11-06T14:26:48.638Z,99393.22
2022-11-06T14:29:28.093Z,99376.31
2022-11-06T14:32:11.591Z,99366.63
2022-11-06T14:34:42.825Z,99376.66
2022-11-06T14:37:19.140Z,99375.66
2022-11-06T14:39:52.184Z,99367.25
2022-11-06T14:42:41.821Z,99368.03
2022-11-06T14:45:12.361Z,99371.09
2022-11-06T14:47:49.266Z,99375.91
2022-11-06T14:50:19.435Z,99362.91
2022-11-06T14:52:51.312Z,99356.22
2022-11-06T14:55:34.599Z,99355.59
2022-11-06T14:58:15.382Z,99363.28
2022-11-06T15:00:58.839Z,99363.16
2022-11-06T15:03:32.141Z,99358.28
2022-11-06T15:06:18.460Z,99357.97
2022-11-06T15:08:46.473Z,99358.69
2022-11-06T15:11:31.826Z,99346.28
2022-11-06T15:13:59.693Z,99337.66
2022-11-06T15:16:36.725Z,99337.38
2022-11-06T15:19:06.027Z,99337.78
2022-11-06T15:21:42.213Z,99337.09
2022-11-06T15:24:17.336Z,99334.13
2022-11-06T15:26:51.426Z,99331.13
2022-11-06T15:29:37.062Z,99335.75
2022-11-06T15:32:30.163Z,99338.69
2022-11-06T15:34:59.847Z,99337.72
2022-11-06T15:37:32.318Z,99338.22
2022-11-06T15:40:01.263Z,99340.63
2022-11-06T15:42:31.573Z,99329.47
2022-11-06T15:45:15.060Z,99331.72
2022-11-06T15:47:57.242Z,99324.09
2022-11-06T15:50:27.174Z,99316.16
2022-11-06T15:52:55.136Z,99325.50
2022-11-06T15:55:32.946Z,99324.16
2022-11-06T15:58:30.593Z,99321.13
2022-11-06T16:01:02.373Z,99315.88
2022-11-06T16:03:32.662Z,99325.56
2022-11-06T16:06:03.987Z,99321.50
2022-11-06T16:08:32.417Z,99326.09
2022-11-06T16:11:01.036Z,99322.84
2022-11-06T16:13:28.443Z,99311.31
2022-11-06T16:16:02.463Z,99313.16
2022-11-06T16:18:40.866Z,99317.06
2022-11-06T16:21:12.647Z,99306.69
2022-11-06T16:23:41.665Z,99303.13
2022-11-06T16:26:15.682Z,99315.69
2022-11-06T16:28:49.061Z,99318.25
2022-11-06T16:31:20.874Z,99313.84
2022-11-06T16:34:05.550Z,99313.16
2022-11-06T16:36:52.446Z,99312.97
2022-11-06T16:39:50.389Z,99313.50
2022-11-06T16:42:25.621Z,99316.56
2022-11-06T16:45:02.862Z,99321.28
2022-11-06T16:47:29.870Z,99326.25
2022-11-06T16:49:58.253Z,99318.09
2022-11-06T16:52:31.688Z,99325.38
2022-11-06T16:55:00.821Z,99328.09
2022-11-06T16:57:37.028Z,99332.19
2022-11-06T17:00:22.945Z,99334.75
2022-11-06T17:02:51.748Z,99339.84
2022-11-06T17:05:22.177Z,99344.91
2022-11-06T17:08:07.349Z,99351.34
2022-11-06T17:10:34.281Z,99351.34
2022-11-06T17:13:13.066Z,99359.50
2022-11-06T17:15:41.888Z,99354.63
2022-11-06T17:18:17.962Z,99349.53
2022-11-06T17:20:47.999Z,99345.94
2022-11-06T17:23:16.298Z,99325.25
2022-11-06T17:25:44.962Z,99318.94
2022-11-06T17:28:12.286Z,99331.69
2022-11-06T17:30:40.566Z,99337.47
2022-11-06T17:33:07.887Z,99327.16
2022-11-06T17:35:34.914Z,99314.75
2022-11-06T17:38:07.009Z,99344.81
2022-11-06T17:40:34.460Z,99344.13
2022-11-06T17:43:01.422Z,99330.03
2022-11-06T17:45:28.402Z,99333.59
2022-11-06T17:47:55.400Z,99331.03
2022-11-06T17:50:22.509Z,99341.25
2022-11-06T17:52:49.485Z,99337.50
2022-11-06T17:55:16.606Z,99336.28
2022-11-06T17:57:44.011Z,99344.28
2022-11-06T18:00:11.669Z,99340.72
2022-11-06T18:02:59.697Z,99345.97
2022-11-06T18:05:26.053Z,99332.59
2022-11-06T18:07:52.993Z,99324.06
2022-11-06T18:10:20.020Z,99321.72
2022-11-06T18:12:46.962Z,99312.72
2022-11-06T18:15:13.948Z,99309.81
2022-11-06T18:17:40.921Z,99298.97
2022-11-06T18:20:08.651Z,99304.03
2022-11-06T18:22:36.719Z,99291.47
2022-11-06T18:25:03.975Z,99295.69
2022-11-06T18:27:30.955Z,99287.22
2022-11-06T18:29:57.921Z,99282.84
2022-11-06T18:32:25.911Z,99264.16
2022-11-06T18:34:52.899Z,99272.31
2022-11-06T18:37:19.871Z,99278.63
2022-11-06T18:39:46.836Z,99295.75
2022-11-06T18:42:13.773Z,99295.75
2022-11-06T18:44:40.779Z,99272.34
2022-11-06T18:47:07.809Z,99275.94
2022-11-06T18:49:34.848Z,99267.25
2022-11-06T18:52:10.700Z,99263.69
2022-11-06T18:54:37.679Z,99248.59
2022-11-06T18:57:04.643Z,99243.50
2022-11-06T18:59:31.581Z,99247.44
2022-11-06T19:01:58.716Z,99251.84
2022-11-06T19:04:25.833Z,99253.03
2022-11-06T19:06:53.085Z,99265.09
2022-11-06T19:09:20.072Z,99270.53
2022-11-06T19:11:47.048Z,99272.38
2022-11-06T19:14:14.065Z,99289.38
2022-11-06T19:16:41.025Z,99287.84
2022-11-06T19:19:07.978Z,99297.19
2022-11-06T19:21:35.393Z,99289.19
2022-11-06T19:24:06.001Z,99289.03
2022-11-06T19:26:36.554Z,99293.44
2022-11-06T19:29:05.703Z,99306.84
2022-11-06T19:31:33.167Z,99306.69
2022-11-06T19:34:02.288Z,99293.75
2022-11-06T19:36:30.240Z,99292.56
2022-11-06T19:38:57.882Z,99291.53
2022-11-06T19:41:26.011Z,99292.09
2022-11-06T19:43:53.036Z,99291.22
2022-11-06T19:46:24.975Z,99290.88
2022-11-06T19:48:54.146Z,99280.38
2022-11-06T19:51:22.152Z,99275.31
2022-11-06T19:53:52.195Z,99292.25
2022-11-06T19:56:19.623Z,99283.25
2022-11-06T19:58:46.603Z,99288.50
2022-11-06T20:01:14.319Z,99288.50
2022-11-06T20:03:42.176Z,99278.69
2022-11-06T20:06:10.049Z,99286.66
2022-11-06T20:08:37.720Z,99290.91
2022-11-06T20:11:10.013Z,99293.13
2022-11-06T20:13:36.970Z,99303.81
2022-11-06T20:16:05.982Z,99299.59
2022-11-06T20:18:33.390Z,99296.50
2022-11-06T20:21:01.546Z,99310.94
2022-11-06T20:23:29.735Z,99309.25
2022-11-06T20:25:57.077Z,99319.09
2022-11-06T20:28:24.627Z,99312.78
2022-11-06T20:30:52.633Z,99308.41
2022-11-06T20:33:19.628Z,99321.78
2022-11-06T20:35:46.841Z,99315.88
2022-11-06T20:38:15.111Z,99328.41
2022-11-06T20:40:43.021Z,99313.66
2022-11-06T20:43:10.325Z,99314.81
2022-11-06T20:45:37.476Z,99318.38
2022-11-06T20:48:06.807Z,99316.88
2022-11-06T20:50:33.904Z,99319.75
2022-11-06T20:53:01.903Z,99325.81
2022-11-06T20:55:28.956Z,99332.09
2022-11-06T20:57:56.007Z,99330.75
2022-11-06T21:00:22.996Z,99332.44
2022-11-06T21:02:51.059Z,99340.94
2022-11-06T21:05:18.088Z,99356.22
2022-11-06T21:07:45.059Z,99357.38
2022-11-06T21:10:12.043Z,99358.06
2022-11-06T21:12:39.036Z,99362.31
2022-11-06T21:15:06.591Z,99363.34
2022-11-06T21:17:33.567Z,99355.19
2022-11-06T21:20:00.536Z,99362.63
2022-11-06T21:22:27.506Z,99367.91
2022-11-06T21:24:54.468Z,99367.22
2022-11-06T21:27:21.441Z,99373.81
2022-11-06T21:29:48.394Z,99372.84
2022-11-06T21:32:15.348Z,99376.22
2022-11-06T21:34:42.437Z,99374.69
2022-11-06T21:37:09.400Z,99377.41
2022-11-06T21:39:36.922Z,99372.31
2022-11-06T21:42:04.999Z,99382.69
2022-11-06T21:44:33.045Z,99384.38
2022-11-06T21:47:00.017Z,99378.63
2022-11-06T21:49:27.006Z,99385.91
2022-11-06T21:51:53.988Z,99386.06
2022-11-06T21:54:20.978Z,99388.63
2022-11-06T21:56:49.482Z,99386.41
2022-11-06T21:59:25.269Z,99387.75
2022-11-06T22:01:52.409Z,99383.03
2022-11-06T22:04:19.510Z,99385.56
2022-11-06T22:06:46.558Z,99378.97
2022-11-06T22:09:13.868Z,99377.75
2022-11-06T22:11:43.299Z,99380.97
2022-11-06T22:14:13.285Z,99379.97
2022-11-06T22:16:42.310Z,99369.78
2022-11-06T22:19:10.579Z,99378.09
2022-11-06T22:21:38.715Z,99373.34
2022-11-06T22:24:06.962Z,99375.91
2022-11-06T22:26:35.052Z,99377.59
2022-11-06T22:29:06.227Z,99374.72
2022-11-06T22:31:33.788Z,99377.91
2022-11-06T22:34:00.996Z,99376.06
2022-11-06T22:36:28.075Z,99378.59
2022-11-06T22:38:55.132Z,99383.84
2022-11-06T22:41:24.538Z,99387.25
2022-11-06T22:43:52.351Z,99383.34
2022-11-06T22:46:22.296Z,99389.44
2022-11-06T22:48:50.780Z,99397.25
2022-11-06T22:51:20.281Z,99386.38
2022-11-06T22:53:48.176Z,99393.16
2022-11-06T22:56:15.116Z,99409.78
2022-11-06T22:58:42.465Z,99404.53
2022-11-06T23:01:10.820Z,99394.03
2022-11-06T23:03:38.579Z,99402.84
2022-11-06T23:06:08.626Z,99409.63
2022-11-06T23:08:38.915Z,99415.41
2022-11-06T23:11:10.038Z,99417.94
2022-11-06T23:13:37.764Z,99424.75
2022-11-06T23:16:08.467Z,99425.28
2022-11-06T23:18:35.945Z,99424.06
2022-11-06T23:21:11.717Z,99430.53
2022-11-06T23:23:38.877Z,99436.28
2022-11-06T23:26:17.010Z,99427.97
2022-11-06T23:28:45.123Z,99436.28
2022-11-06T23:31:13.927Z,99432.22
2022-11-06T23:33:41.915Z,99434.75
2022-11-06T23:36:11.803Z,99442.53
2022-11-06T23:38:39.435Z,99441.19
2022-11-06T23:41:08.167Z,99437.94
2022-11-06T23:43:35.166Z,99440.50
2022-11-06T23:46:02.185Z,99448.63
2022-11-06T23:48:29.162Z,99436.75
2022-11-06T23:50:59.382Z,99439.78
2022-11-06T23:53:26.362Z,99439.44
2022-11-06T23:55:53.351Z,99447.91
2022-11-06T23:58:20.505Z,99450.13
